Time;durP1;ratioP1;P1;durP2;ratioP2;P2;SDS_P1;SDS_P2;PMS_P1;PMS_P2;Temp;Humidity;BMP_temperature;BMP_pressure;BME280_temperature;BME280_humidity;BME280_pressure;Samples;Min_cycle;Max_cycle;Signal;HPM_P1;HPM_P2
2024/04/03 00:01:44;;;;;;;0.10;0.10;;;;;;;12.82;48.90;101177.81;5073693;28;20032;-88
2024/04/03 00:04:09;;;;;;;0.20;0.20;;;;;;;13.07;48.59;101216.38;5090119;28;20109;-89
2024/04/03 00:06:35;;;;;;;0.10;0.10;;;;;;;13.03;49.39;101221.81;5072474;28;20058;-88
2024/04/03 00:09:00;;;;;;;0.10;0.10;;;;;;;13.00;49.28;101219.38;5056463;28;20036;-89
2024/04/03 00:11:26;;;;;;;0.10;0.10;;;;;;;13.06;48.52;101221.66;5056297;28;20464;-90
2024/04/03 00:13:51;;;;;;;0.20;0.20;;;;;;;13.03;48.32;101214.03;5089736;28;20497;-89
2024/04/03 00:16:17;;;;;;;0.20;0.20;;;;;;;12.93;48.77;101224.84;5073209;28;20574;-89
2024/04/03 00:18:42;;;;;;;0.20;0.20;;;;;;;12.93;49.31;101230.06;5073002;28;20478;-90
2024/04/03 00:21:08;;;;;;;0.10;0.10;;;;;;;12.84;49.37;101227.06;5055773;28;20028;-89
2024/04/03 00:23:33;;;;;;;0.10;0.10;;;;;;;12.49;49.78;101195.88;5073043;28;20024;-88
2024/04/03 00:26:00;;;;;;;0.20;0.20;;;;;;;12.73;49.80;101229.34;5090717;28;20079;-89
2024/04/03 00:28:26;;;;;;;0.10;0.10;;;;;;;12.64;49.92;101231.47;5073168;28;20032;-89
2024/04/03 00:30:52;;;;;;;0.20;0.20;;;;;;;12.72;49.89;101233.69;5069206;28;20033;-91
2024/04/03 00:33:18;;;;;;;0.20;0.20;;;;;;;12.73;50.38;101231.94;5069463;28;20107;-89
2024/04/03 00:35:52;;;;;;;0.10;0.10;;;;;;;12.77;50.33;101230.88;5052453;28;20143;-88
2024/04/03 00:38:18;;;;;;;0.10;0.10;;;;;;;12.84;49.67;101238.28;5069565;28;20024;-88
2024/04/03 00:40:43;;;;;;;0.10;0.10;;;;;;;12.86;49.33;101231.25;5036235;28;20044;-89
2024/04/03 00:43:13;;;;;;;0.15;0.15;;;;;;;12.92;49.69;101230.97;5052721;28;20025;-90
2024/04/03 00:45:39;;;;;;;0.10;0.10;;;;;;;12.84;49.64;101227.91;5036097;28;20414;-89
2024/04/03 00:48:04;;;;;;;0.10;0.10;;;;;;;12.90;49.49;101230.22;5069484;28;20036;-88
2024/04/03 00:50:30;;;;;;;0.20;0.20;;;;;;;12.93;49.63;101230.06;5052366;28;20150;-89
2024/04/03 00:52:56;;;;;;;0.20;0.20;;;;;;;13.01;48.92;101229.69;5069355;28;20051;-89
2024/04/03 00:55:22;;;;;;;0.10;0.10;;;;;;;13.02;49.45;101227.94;5052347;28;20439;-89
2024/04/03 00:57:47;;;;;;;0.20;0.20;;;;;;;12.97;48.82;101209.97;5069325;28;20060;-89
2024/04/03 01:00:13;;;;;;;0.10;0.10;;;;;;;13.21;48.77;101239.13;5069041;28;20028;-90
2024/04/03 01:02:38;;;;;;;0.20;0.20;;;;;;;13.18;48.86;101234.06;5055531;28;20032;-89
2024/04/03 01:05:04;;;;;;;0.20;0.20;;;;;;;13.30;48.47;101233.47;5055986;28;20033;-88
2024/04/03 01:07:30;;;;;;;0.10;0.10;;;;;;;13.23;48.35;101234.69;5056191;28;20025;-88
2024/04/03 01:09:55;;;;;;;0.20;0.20;;;;;;;13.19;49.08;101222.78;5072935;28;20029;-90
2024/04/03 01:12:21;;;;;;;0.10;0.10;;;;;;;13.24;48.44;101233.75;5039641;28;20025;-90
2024/04/03 01:14:46;;;;;;;0.10;0.10;;;;;;;13.26;49.03;101237.13;5039323;28;20020;-90
2024/04/03 01:17:12;;;;;;;0.10;0.10;;;;;;;13.23;49.18;101234.69;5056065;28;20028;-88
2024/04/03 01:19:37;;;;;;;0.10;0.10;;;;;;;13.20;49.39;101242.63;5055584;28;20024;-89
2024/04/03 01:22:03;;;;;;;0.10;0.10;;;;;;;13.08;49.00;101225.88;5055792;28;20058;-89
2024/04/03 01:24:30;;;;;;;0.10;0.10;;;;;;;13.09;48.95;101242.31;5055948;28;20075;-88
2024/04/03 01:26:55;;;;;;;0.10;0.10;;;;;;;13.02;49.39;101240.91;5074074;28;20028;-89
2024/04/03 01:29:22;;;;;;;0.10;0.10;;;;;;;12.95;49.15;101239.53;5055789;28;20409;-88
2024/04/03 01:31:48;;;;;;;0.10;0.10;;;;;;;12.85;50.09;101237.38;5039615;28;20027;-89
2024/04/03 01:34:13;;;;;;;0.10;0.10;;;;;;;12.87;50.46;101232.94;5072486;28;20418;-88
2024/04/03 01:36:39;;;;;;;0.20;0.20;;;;;;;12.86;49.85;101235.63;5055919;28;20418;-88
2024/04/03 01:39:04;;;;;;;0.20;0.20;;;;;;;12.79;49.52;101235.09;5074782;28;20461;-90
2024/04/03 01:41:30;;;;;;;0.10;0.10;;;;;;;12.84;50.25;101243.47;5059170;28;20398;-88
2024/04/03 01:43:55;;;;;;;0.10;0.10;;;;;;;12.79;49.24;101240.28;5092301;28;20452;-90
2024/04/03 01:46:21;;;;;;;0.10;0.10;;;;;;;12.73;49.98;101245.75;5092424;28;20547;-90
2024/04/03 01:48:48;;;;;;;0.20;0.20;;;;;;;12.57;49.61;101218.84;5092265;28;20032;-89
2024/04/03 01:51:13;;;;;;;0.10;0.10;;;;;;;12.76;49.55;101244.75;5075690;28;20048;-88
2024/04/03 01:53:39;;;;;;;0.10;0.10;;;;;;;12.74;49.85;101247.44;5075555;28;20028;-88
2024/04/03 01:56:05;;;;;;;0.10;0.10;;;;;;;12.78;49.71;101240.34;5075690;28;20500;-89
2024/04/03 01:58:30;;;;;;;0.20;0.20;;;;;;;12.76;49.58;101235.22;5075546;28;20053;-89
2024/04/03 02:00:56;;;;;;;0.10;0.10;;;;;;;12.62;50.41;101225.50;5092445;28;20024;-89
2024/04/03 02:03:21;;;;;;;0.10;0.10;;;;;;;12.77;50.12;101249.88;5074983;28;20032;-89
2024/04/03 02:05:47;;;;;;;0.10;0.10;;;;;;;12.69;50.28;101244.25;5058488;28;20028;-89
2024/04/03 02:08:13;;;;;;;0.20;0.20;;;;;;;12.79;49.91;101253.28;5075233;28;20123;-89
2024/04/03 02:10:39;;;;;;;0.20;0.20;;;;;;;12.76;49.60;101260.34;5092229;28;20032;-90
2024/04/03 02:13:04;;;;;;;0.10;0.10;;;;;;;12.63;50.04;101241.94;5075019;28;20099;-89
2024/04/03 02:15:30;;;;;;;0.10;0.10;;;;;;;12.79;49.28;101244.63;5091919;28;20492;-89
2024/04/03 02:17:56;;;;;;;0.20;0.20;;;;;;;12.79;48.56;101253.28;5074887;28;20024;-89
2024/04/03 02:20:21;;;;;;;0.10;0.10;;;;;;;12.76;48.94;101248.19;5075184;28;20482;-89
2024/04/03 02:22:47;;;;;;;0.10;0.10;;;;;;;12.79;49.59;101249.84;5091620;28;20478;-91
2024/04/03 02:25:13;;;;;;;0.20;0.20;;;;;;;12.83;49.68;101252.19;5091404;28;20047;-88
2024/04/03 02:27:38;;;;;;;0.10;0.10;;;;;;;12.63;49.94;101218.56;5074982;28;20039;-89
2024/04/03 02:30:04;;;;;;;0.13;0.13;;;;;;;12.84;49.40;101253.88;5091379;28;20028;-89
2024/04/03 02:32:30;;;;;;;0.10;0.10;;;;;;;12.63;49.40;101229.78;5091323;28;20020;-88
2024/04/03 02:34:55;;;;;;;0.10;0.10;;;;;;;12.63;49.97;101250.56;5074823;28;20494;-89
2024/04/03 02:37:21;;;;;;;0.10;0.10;;;;;;;12.50;50.50;101243.44;5091462;28;20030;-90
2024/04/03 02:39:46;;;;;;;0.10;0.10;;;;;;;12.47;50.54;101243.56;5091633;28;20028;-90
2024/04/03 02:42:12;;;;;;;0.17;0.17;;;;;;;12.31;50.35;101218.34;5091484;28;20024;-90
2024/04/03 02:44:37;;;;;;;0.10;0.10;;;;;;;12.37;50.84;101237.09;5091500;28;20067;-91
2024/04/03 02:47:03;;;;;;;0.10;0.10;;;;;;;12.38;50.60;101246.56;5074152;28;20040;-89
2024/04/03 02:49:29;;;;;;;0.10;0.10;;;;;;;12.31;51.17;101239.09;5074605;28;20074;-88
2024/04/03 02:51:54;;;;;;;0.10;0.10;;;;;;;12.27;51.17;101234.09;5091397;28;20040;-89
2024/04/03 02:54:20;;;;;;;0.10;0.10;;;;;;;12.21;52.00;101253.41;5074453;28;20032;-89
2024/04/03 02:56:45;;;;;;;0.13;0.13;;;;;;;12.14;51.65;101241.63;5074369;28;20425;-89
2024/04/03 02:59:11;;;;;;;0.10;0.10;;;;;;;12.10;51.86;101244.44;5074083;28;20180;-90
2024/04/03 03:01:36;;;;;;;0.10;0.10;;;;;;;12.19;51.31;101244.84;5090975;28;20478;-85
2024/04/03 03:04:02;;;;;;;0.10;0.10;;;;;;;12.10;52.12;101239.25;5057126;28;20550;-86
2024/04/03 03:06:28;;;;;;;0.10;0.10;;;;;;;12.28;51.52;101262.56;5090480;28;20039;-85
2024/04/03 03:08:53;;;;;;;0.10;0.10;;;;;;;12.19;51.46;101260.41;5090648;28;20028;-85
2024/04/03 03:11:19;;;;;;;0.10;0.10;;;;;;;12.21;51.56;101274.16;5073334;28;20035;-84
2024/04/03 03:13:44;;;;;;;0.20;0.20;;;;;;;12.02;51.65;101262.91;5073623;28;20024;-85
2024/04/03 03:16:10;;;;;;;0.10;0.10;;;;;;;11.83;51.86;101262.06;5090490;28;20514;-84
2024/04/03 03:18:35;;;;;;;0.10;0.10;;;;;;;11.83;52.82;101287.97;5073544;28;20497;-85
2024/04/03 03:21:01;;;;;;;0.10;0.10;;;;;;;11.75;52.57;101293.44;5073501;28;20485;-85
2024/04/03 03:23:27;;;;;;;0.10;0.10;;;;;;;11.57;52.58;101287.31;5072861;28;20474;-84
2024/04/03 03:25:52;;;;;;;0.20;0.20;;;;;;;11.48;53.19;101278.16;5056600;28;20050;-85
2024/04/03 03:28:20;;;;;;;0.10;0.10;;;;;;;11.64;52.89;101301.69;5073431;28;20035;-85
2024/04/03 03:30:47;;;;;;;0.10;0.10;;;;;;;11.40;53.38;101284.56;5089999;28;20032;-85
2024/04/03 03:33:12;;;;;;;0.10;0.10;;;;;;;11.43;53.84;101302.59;5073329;28;20026;-84
2024/04/03 03:35:38;;;;;;;0.20;0.20;;;;;;;11.33;54.08;101304.72;5073336;28;20020;-84
2024/04/03 03:38:03;;;;;;;0.10;0.10;;;;;;;11.21;54.57;101305.25;5073353;28;20066;-84
2024/04/03 03:40:31;;;;;;;0.10;0.10;;;;;;;11.14;54.30;101296.88;5088193;28;20055;-84
2024/04/03 03:42:56;;;;;;;0.15;0.15;;;;;;;11.15;54.81;101295.13;5088898;28;20445;-89
2024/04/03 03:45:22;;;;;;;0.10;0.10;;;;;;;11.27;54.86;101315.31;5072368;28;20036;-87
2024/04/03 03:47:48;;;;;;;0.10;0.10;;;;;;;11.27;54.83;101315.31;5056221;28;20066;-86
2024/04/03 03:52:58;;;;;;;0.10;0.10;;;;;;;11.31;54.48;101318.66;5075091;28;20062;-85
2024/04/03 03:55:28;;;;;;;0.10;0.10;;;;;;;11.44;54.25;101327.59;5072455;28;20553;-85
2024/04/03 03:57:54;;;;;;;0.10;0.10;;;;;;;11.45;54.68;101324.09;5089421;28;20555;-85
2024/04/03 04:00:19;;;;;;;0.20;0.20;;;;;;;11.49;54.45;101325.66;5072259;28;20123;-86
2024/04/03 04:02:45;;;;;;;0.20;0.20;;;;;;;11.64;53.85;101327.59;5072167;28;20085;-86
2024/04/03 04:05:10;;;;;;;0.10;0.10;;;;;;;11.51;54.09;101330.78;5072741;28;20031;-86
2024/04/03 04:07:36;;;;;;;0.10;0.10;;;;;;;11.56;54.12;101337.44;5072565;28;20482;-85
2024/04/03 04:10:01;;;;;;;0.10;0.10;;;;;;;11.60;53.96;101330.38;5072151;28;20497;-86
2024/04/03 04:12:27;;;;;;;0.20;0.20;;;;;;;11.70;53.48;101327.34;5072570;28;20032;-86
2024/04/03 04:14:52;;;;;;;0.10;0.10;;;;;;;11.72;53.72;101327.28;5054803;28;20032;-83
2024/04/03 04:17:19;;;;;;;0.10;0.10;;;;;;;11.84;53.44;101339.75;5072045;28;20039;-86
2024/04/03 04:19:45;;;;;;;0.10;0.10;;;;;;;11.86;54.09;101344.88;5087704;28;20131;-86
2024/04/03 04:22:11;;;;;;;0.20;0.20;;;;;;;11.80;53.74;101350.31;5072165;28;20032;-84
2024/04/03 04:24:37;;;;;;;0.10;0.10;;;;;;;11.83;53.71;101355.38;5071946;28;20051;-86
2024/04/03 04:27:05;;;;;;;0.20;0.20;;;;;;;11.85;53.36;101345.78;5078914;28;20514;-85
2024/04/03 04:29:31;;;;;;;0.10;0.10;;;;;;;11.88;53.14;101350.81;5084945;28;20058;-86
2024/04/03 04:31:58;;;;;;;0.20;0.20;;;;;;;11.76;54.08;101350.41;5053612;28;20035;-89
2024/04/03 04:34:25;;;;;;;0.10;0.10;;;;;;;11.77;53.63;101344.31;5054001;28;20029;-85
2024/04/03 04:36:51;;;;;;;0.20;0.20;;;;;;;11.82;53.49;101353.69;5067813;28;20054;-87
2024/04/03 04:39:16;;;;;;;0.10;0.10;;;;;;;11.83;53.19;101352.78;5093449;28;20585;-90
2024/04/03 04:41:42;;;;;;;0.10;0.10;;;;;;;11.90;53.39;101362.00;5084256;28;20089;-85
2024/04/03 04:44:07;;;;;;;0.10;0.10;;;;;;;11.92;54.04;101360.19;5093810;28;20085;-90
2024/04/03 04:46:33;;;;;;;0.10;0.10;;;;;;;11.97;53.25;101366.00;5077829;28;20452;-91
2024/04/03 04:48:58;;;;;;;0.20;0.20;;;;;;;11.81;53.58;101344.25;5094338;28;20032;-91
2024/04/03 04:51:24;;;;;;;0.10;0.10;;;;;;;11.99;53.45;101372.78;5093605;28;20043;-91
2024/04/03 04:53:50;;;;;;;0.20;0.20;;;;;;;12.04;53.52;101380.38;5093850;28;20036;-92
2024/04/03 04:56:15;;;;;;;0.20;0.20;;;;;;;12.04;53.72;101390.75;5074917;28;20520;-85
2024/04/03 04:58:41;;;;;;;0.20;0.20;;;;;;;11.97;53.38;101394.50;5074219;28;20490;-92
2024/04/03 05:01:07;;;;;;;0.10;0.10;;;;;;;12.07;53.33;101393.22;5064569;28;20493;-86
2024/04/03 05:03:33;;;;;;;0.20;0.20;;;;;;;12.09;52.89;101382.78;5077290;28;20017;-87
2024/04/03 05:06:00;;;;;;;0.10;0.10;;;;;;;12.22;53.07;101397.75;5084179;28;20547;-91
2024/04/03 05:08:25;;;;;;;0.20;0.20;;;;;;;12.14;53.12;101392.06;5086308;28;20522;-86
2024/04/03 05:10:52;;;;;;;0.20;0.20;;;;;;;12.06;53.84;101404.50;5075168;28;20032;-88
2024/04/03 05:13:18;;;;;;;0.20;0.20;;;;;;;12.18;53.94;101397.94;5093514;28;20024;-91
2024/04/03 05:15:45;;;;;;;0.10;0.10;;;;;;;12.21;54.21;101398.66;5075751;28;20056;-92
2024/04/03 05:18:11;;;;;;;0.20;0.20;;;;;;;12.12;53.87;101380.91;5057048;28;20028;-90
2024/04/03 05:20:37;;;;;;;0.20;0.20;;;;;;;12.18;53.80;101383.22;5079887;28;20498;-87
2024/04/03 05:23:02;;;;;;;0.10;0.10;;;;;;;12.35;53.14;101391.13;5075136;28;20044;-87
2024/04/03 05:25:28;;;;;;;0.10;0.10;;;;;;;12.43;53.24;101379.56;5071770;28;20052;-93
2024/04/03 05:27:54;;;;;;;0.10;0.10;;;;;;;12.27;53.28;101367.25;5088056;28;20020;-86
2024/04/03 05:30:21;;;;;;;0.10;0.10;;;;;;;12.34;53.97;101362.63;5094063;28;20038;-91
2024/04/03 05:32:47;;;;;;;0.10;0.10;;;;;;;12.53;54.62;101384.25;5095394;28;20020;-94
2024/04/03 05:35:15;;;;;;;0.10;0.10;;;;;;;12.67;54.17;101382.78;5094355;28;20036;-91
2024/04/03 05:37:41;;;;;;;0.20;0.20;;;;;;;12.70;52.96;101380.91;5052322;28;20052;-85
2024/04/03 05:40:07;;;;;;;0.10;0.10;;;;;;;12.74;53.15;101377.25;5074028;28;20119;-88
2024/04/03 05:42:32;;;;;;;0.10;0.10;;;;;;;12.88;53.04;101384.38;5088373;28;20027;-84
2024/04/03 05:44:58;;;;;;;0.10;0.10;;;;;;;12.99;53.96;101382.16;5091185;28;20043;-90
2024/04/03 05:47:24;;;;;;;0.10;0.10;;;;;;;12.98;54.07;101364.91;5060951;28;20036;-87
2024/04/03 05:49:53;;;;;;;0.10;0.10;;;;;;;13.04;53.17;101374.16;5091885;28;20021;-90
2024/04/03 05:52:20;;;;;;;0.10;0.10;;;;;;;13.16;53.69;101373.56;5083597;28;20033;-90
2024/04/03 05:54:46;;;;;;;0.10;0.10;;;;;;;13.14;53.57;101375.38;5071033;28;20090;-86
2024/04/03 05:57:13;;;;;;;0.20;0.20;;;;;;;13.10;53.68;101379.06;5056454;28;20087;-88
2024/04/03 05:59:38;;;;;;;0.10;0.10;;;;;;;13.16;53.95;101378.75;5072597;28;20601;-87
2024/04/03 06:02:04;;;;;;;0.20;0.20;;;;;;;13.33;53.83;101385.78;5079790;28;20107;-91
2024/04/03 06:04:30;;;;;;;0.20;0.20;;;;;;;13.39;53.33;101385.50;5093310;28;20122;-91
2024/04/03 06:06:57;;;;;;;0.20;0.20;;;;;;;13.57;52.61;101391.53;5094304;28;20032;-92
2024/04/03 06:09:22;;;;;;;0.20;0.20;;;;;;;13.69;52.02;101390.94;5072381;28;20035;-91
2024/04/03 06:11:48;;;;;;;0.10;0.10;;;;;;;13.79;51.82;101381.75;5072521;28;20029;-89
2024/04/03 06:14:13;;;;;;;0.20;0.20;;;;;;;14.04;51.54;101386.53;5070932;28;20025;-90
2024/04/03 06:16:39;;;;;;;0.10;0.10;;;;;;;14.09;50.89;101378.53;5054900;28;20021;-87
2024/04/03 06:19:09;;;;;;;0.20;0.20;;;;;;;14.28;50.86;101379.25;5067611;28;20028;-88
2024/04/03 06:21:36;;;;;;;0.17;0.17;;;;;;;14.44;50.83;101382.72;5088438;28;20035;-93
2024/04/03 06:24:03;;;;;;;0.10;0.10;;;;;;;14.47;50.68;101371.34;5075752;28;21171;-89
2024/04/03 06:26:28;;;;;;;0.20;0.20;;;;;;;14.85;49.84;101403.13;5071639;28;20451;-88
2024/04/03 06:28:54;;;;;;;0.10;0.10;;;;;;;14.81;48.54;101380.78;5038827;28;20092;-88
2024/04/03 06:31:20;;;;;;;0.10;0.10;;;;;;;14.99;48.87;101384.97;5076136;28;20413;-86
2024/04/03 06:33:50;;;;;;;0.10;0.10;;;;;;;15.15;49.29;101401.44;5090868;28;20024;-89
2024/04/03 06:36:16;;;;;;;0.10;0.10;;;;;;;15.29;48.48;101386.78;5082185;28;20036;-87
2024/04/03 06:38:42;;;;;;;0.20;0.20;;;;;;;15.41;48.25;101396.53;5080644;28;20043;-88
2024/04/03 06:41:08;;;;;;;0.10;0.10;;;;;;;15.55;47.65;101400.97;5088945;28;20032;-91
2024/04/03 06:43:34;;;;;;;0.10;0.10;;;;;;;15.65;47.51;101405.59;5076634;28;20039;-91
2024/04/03 06:46:00;;;;;;;0.15;0.15;;;;;;;15.69;46.42;101412.31;5073697;28;20028;-88
2024/04/03 06:48:26;;;;;;;0.20;0.20;;;;;;;15.70;45.80;101413.97;5073474;28;20050;-86
2024/04/03 06:50:54;;;;;;;0.20;0.20;;;;;;;15.64;45.91;101419.56;5089798;28;20089;-88
2024/04/03 06:53:21;;;;;;;0.10;0.10;;;;;;;15.82;44.63;101419.41;5075395;28;20494;-91
2024/04/03 06:55:57;;;;;;;0.20;0.20;;;;;;;15.81;44.64;101399.47;5083964;28;20024;-90
2024/04/03 06:58:23;;;;;;;0.20;0.20;;;;;;;15.92;44.55;101416.16;5076892;28;20115;-90
2024/04/03 07:00:49;;;;;;;0.20;0.20;;;;;;;15.99;45.27;101412.28;5083654;28;20462;-86
2024/04/03 07:03:16;;;;;;;0.10;0.10;;;;;;;16.16;45.55;101421.72;5077151;28;20074;-91
2024/04/03 07:05:43;;;;;;;0.10;0.10;;;;;;;16.21;42.96;101398.78;5064543;28;20039;-88
2024/04/03 07:08:09;;;;;;;0.20;0.20;;;;;;;16.30;42.88;101416.50;5070600;28;20486;-91
2024/04/03 07:10:35;;;;;;;0.20;0.20;;;;;;;16.42;43.00;101435.84;5056885;28;20039;-89
2024/04/03 07:13:02;;;;;;;0.20;0.20;;;;;;;16.49;42.66;101424.06;5068905;28;20050;-87
2024/04/03 07:15:32;;;;;;;0.20;0.20;;;;;;;16.32;42.80;101417.28;5090436;28;20163;-90
2024/04/03 07:18:00;;;;;;;0.20;0.20;;;;;;;16.62;41.89;101417.19;5067242;28;20024;-88
2024/04/03 07:20:27;;;;;;;0.10;0.10;;;;;;;16.78;42.29;101427.53;5075628;28;20028;-90
2024/04/03 07:22:54;;;;;;;0.20;0.20;;;;;;;16.86;42.49;101430.50;5046983;28;20091;-90
2024/04/03 07:25:19;;;;;;;0.20;0.20;;;;;;;16.91;42.32;101423.25;5074346;28;20044;-91
2024/04/03 07:27:45;;;;;;;0.10;0.10;;;;;;;17.02;40.39;101421.72;5084621;28;20047;-90
2024/04/03 07:30:11;;;;;;;0.20;0.20;;;;;;;17.17;40.36;101428.56;5063664;28;20201;-93
2024/04/03 07:32:37;;;;;;;0.20;0.20;;;;;;;17.24;40.11;101416.78;5065463;28;20494;-88
2024/04/03 07:35:02;;;;;;;0.20;0.20;;;;;;;17.39;41.80;101409.72;5086991;28;20028;-89
2024/04/03 07:37:28;;;;;;;0.10;0.10;;;;;;;17.49;39.75;101401.16;5042096;28;20036;-90
2024/04/03 07:39:53;;;;;;;0.20;0.20;;;;;;;17.35;39.21;101414.31;5085540;28;20085;-85
2024/04/03 07:42:19;;;;;;;0.20;0.20;;;;;;;17.54;40.08;101407.91;5083348;28;20061;-90
2024/04/03 07:44:44;;;;;;;0.10;0.10;;;;;;;17.17;39.25;101399.81;5054591;28;20470;-91
2024/04/03 07:47:10;;;;;;;0.20;0.20;;;;;;;17.40;40.53;101396.56;5071778;28;20047;-87
2024/04/03 07:49:36;;;;;;;0.20;0.20;;;;;;;17.56;38.98;101406.00;5052567;28;20084;-88
2024/04/03 07:52:01;;;;;;;0.20;0.20;;;;;;;17.65;38.89;101401.00;5079902;28;20055;-87
2024/04/03 07:57:12;;;;;;;0.20;0.20;;;;;;;17.78;38.10;101396.66;5061149;28;20096;-92
2024/04/03 07:59:38;;;;;;;0.20;0.20;;;;;;;17.92;37.86;101406.22;5090510;28;20015;-86
2024/04/03 08:02:06;;;;;;;0.20;0.20;;;;;;;17.92;37.16;101408.84;5072564;28;20031;-90
2024/04/03 08:04:32;;;;;;;0.20;0.20;;;;;;;18.11;38.28;101408.44;5073821;28;20085;-87
2024/04/03 08:07:02;;;;;;;0.20;0.20;;;;;;;18.02;36.40;101414.28;5092910;28;20046;-92
2024/04/03 08:09:33;;;;;;;0.10;0.10;;;;;;;17.92;38.22;101408.84;5084233;28;20024;-86
2024/04/03 08:12:00;;;;;;;0.10;0.10;;;;;;;18.06;37.44;101413.13;5070191;28;20115;-85
2024/04/03 08:14:25;;;;;;;0.20;0.20;;;;;;;18.25;36.65;101412.72;5065357;28;20781;-91
2024/04/03 08:16:51;;;;;;;0.10;0.10;;;;;;;18.39;36.11;101412.63;5056897;28;20036;-90
2024/04/03 08:19:17;;;;;;;0.10;0.10;;;;;;;18.44;36.97;101415.75;5083065;28;20032;-91
2024/04/03 08:21:44;;;;;;;0.13;0.13;;;;;;;18.59;35.26;101406.84;5069729;28;20628;-85
2024/04/03 08:24:13;;;;;;;0.20;0.20;;;;;;;18.71;36.05;101420.03;5072630;28;20128;-87
2024/04/03 08:26:38;;;;;;;0.10;0.10;;;;;;;18.70;36.46;101408.72;5053363;28;20028;-89
2024/04/03 08:29:04;;;;;;;0.10;0.10;;;;;;;18.81;35.95;101419.28;5072990;28;20081;-85
2024/04/03 08:31:30;;;;;;;0.10;0.10;;;;;;;18.84;34.95;101412.97;5089331;28;20089;-91
2024/04/03 08:33:57;;;;;;;0.20;0.20;;;;;;;18.86;35.21;101411.06;5061325;28;20036;-90
2024/04/03 08:36:24;;;;;;;0.10;0.10;;;;;;;18.76;35.74;101395.16;5054742;28;20029;-87
2024/04/03 08:38:50;;;;;;;0.20;0.20;;;;;;;19.00;35.66;101403.09;5050159;28;20462;-89
2024/04/03 08:41:16;;;;;;;0.20;0.20;;;;;;;19.10;35.67;101405.88;5088903;28;20031;-91
2024/04/03 08:43:42;;;;;;;0.20;0.20;;;;;;;19.28;33.44;101406.34;5089900;28;20050;-92
2024/04/03 08:46:08;;;;;;;0.10;0.10;;;;;;;19.32;33.22;101394.66;5075070;28;20477;-88
2024/04/03 08:48:33;;;;;;;0.20;0.20;;;;;;;19.45;34.88;101393.63;5071618;28;20036;-85
2024/04/03 08:50:59;;;;;;;0.20;0.20;;;;;;;19.50;33.29;101401.16;5071513;28;20110;-86
2024/04/03 08:53:24;;;;;;;0.20;0.20;;;;;;;19.66;33.65;101404.34;5070078;28;20183;-92
2024/04/03 08:55:52;;;;;;;0.20;0.20;;;;;;;19.69;33.25;101396.25;5071769;28;20029;-94
2024/04/03 08:58:18;;;;;;;0.20;0.20;;;;;;;19.72;33.18;101400.44;5084043;28;20035;-89
2024/04/03 09:00:43;;;;;;;0.20;0.20;;;;;;;19.92;32.22;101398.94;5088310;28;20099;-88
2024/04/03 09:03:13;;;;;;;0.20;0.20;;;;;;;20.04;32.79;101390.09;5071433;28;20059;-90
2024/04/03 09:05:39;;;;;;;0.17;0.17;;;;;;;20.25;32.15;101392.88;5069337;28;20088;-88
2024/04/03 09:08:05;;;;;;;0.20;0.20;;;;;;;20.41;31.26;101400.41;5070037;28;20031;-91
2024/04/03 09:10:32;;;;;;;0.20;0.20;;;;;;;20.46;31.53;101387.78;5075438;28;20039;-93
2024/04/03 09:13:07;;;;;;;0.20;0.20;;;;;;;20.55;31.22;101394.94;5054010;28;20505;-91
2024/04/03 09:15:33;;;;;;;0.20;0.20;;;;;;;20.49;29.68;101401.50;5069198;28;20119;-90
2024/04/03 09:18:02;;;;;;;0.10;0.10;;;;;;;20.32;29.78;101373.06;5063694;28;20099;-88
2024/04/03 09:20:28;;;;;;;0.10;0.10;;;;;;;20.69;29.59;101402.56;5068334;28;20060;-88
2024/04/03 09:22:55;;;;;;;0.10;0.10;;;;;;;20.83;30.18;101383.88;5069201;28;20038;-86
2024/04/03 09:25:21;;;;;;;0.17;0.17;;;;;;;21.03;29.04;101391.97;5072302;28;20093;-92
2024/04/03 09:27:46;;;;;;;0.20;0.20;;;;;;;21.10;29.86;101396.63;5071899;28;20112;-91
2024/04/03 09:30:15;;;;;;;0.20;0.20;;;;;;;20.97;28.04;101381.97;5072091;28;20067;-89
2024/04/03 09:32:40;;;;;;;0.17;0.17;;;;;;;21.05;28.36;101372.50;5073931;28;20032;-92
2024/04/03 09:35:07;;;;;;;0.10;0.10;;;;;;;21.23;28.87;101371.94;5086204;28;20081;-91
2024/04/03 09:37:35;;;;;;;0.10;0.10;;;;;;;21.20;28.03;101380.94;5058851;28;20028;-90
2024/04/03 09:40:03;;;;;;;0.20;0.20;;;;;;;20.95;29.17;101365.47;5092261;28;20024;-93
2024/04/03 09:42:29;;;;;;;0.10;0.10;;;;;;;21.13;29.02;101369.22;5081246;28;20039;-87
2024/04/03 09:44:58;;;;;;;0.20;0.20;;;;;;;21.57;32.22;101362.97;5059710;28;20028;-93
2024/04/03 09:47:24;;;;;;;0.20;0.20;;;;;;;21.41;29.99;101331.81;5062365;28;20114;-92
2024/04/03 09:49:50;;;;;;;0.20;0.20;;;;;;;21.54;31.12;101347.44;5092156;28;20039;-91
2024/04/03 09:52:16;;;;;;;0.20;0.20;;;;;;;21.86;29.11;101341.25;5075105;28;20401;-89
2024/04/03 09:54:41;;;;;;;0.13;0.13;;;;;;;21.72;29.01;101355.56;5075043;28;20024;-93
2024/04/03 09:57:07;;;;;;;0.20;0.20;;;;;;;21.69;28.66;101355.84;5074727;28;20032;-92
2024/04/03 09:59:36;;;;;;;0.20;0.20;;;;;;;21.55;28.71;101335.94;5059072;28;20509;-85
2024/04/03 10:02:02;;;;;;;0.10;0.10;;;;;;;21.50;29.58;101324.13;5069371;28;20032;-90
2024/04/03 10:04:34;;;;;;;0.20;0.20;;;;;;;21.71;29.68;101352.09;5054700;28;20029;-89
2024/04/03 10:07:02;;;;;;;0.10;0.10;;;;;;;21.42;29.19;101338.75;5062521;28;20091;-92
2024/04/03 10:09:27;;;;;;;0.20;0.20;;;;;;;21.75;29.49;101339.53;5069588;28;20039;-85
2024/04/03 10:11:54;;;;;;;0.20;0.20;;;;;;;21.91;30.15;101358.31;5073133;28;20036;-93
2024/04/03 10:14:30;;;;;;;0.20;0.20;;;;;;;21.94;29.46;101342.25;5087789;28;20039;-90
2024/04/03 10:16:56;;;;;;;0.20;0.20;;;;;;;22.11;27.60;101318.91;5075093;28;20107;-88
2024/04/03 10:19:29;;;;;;;0.20;0.20;;;;;;;22.32;27.79;101335.53;5078159;28;20033;-87
2024/04/03 10:21:56;;;;;;;0.20;0.20;;;;;;;22.43;27.70;101308.22;5075568;28;20028;-89
2024/04/03 10:24:22;;;;;;;0.20;0.20;;;;;;;22.70;28.32;101308.38;5192321;22;20054;-91
2024/04/03 10:26:47;;;;;;;0.20;0.20;;;;;;;23.00;27.42;101328.56;4978687;28;20045;-81
2024/04/03 10:29:13;;;;;;;0.20;0.20;;;;;;;22.97;28.68;101318.28;4990066;28;20029;-87
2024/04/03 10:31:39;;;;;;;0.20;0.20;;;;;;;22.84;26.31;101288.72;5005532;28;20030;-92
2024/04/03 10:34:04;;;;;;;0.20;0.20;;;;;;;22.58;26.65;101302.41;4995526;28;20066;-89
2024/04/03 10:36:30;;;;;;;0.20;0.20;;;;;;;22.43;27.33;101324.88;5012353;28;20026;-89
2024/04/03 10:38:55;;;;;;;0.20;0.20;;;;;;;22.47;27.65;101320.97;4994573;28;20411;-91
2024/04/03 10:41:22;;;;;;;0.20;0.20;;;;;;;22.50;26.71;101310.16;4995064;28;20407;-90
2024/04/03 10:43:48;;;;;;;0.20;0.20;;;;;;;22.19;26.96;101309.38;5010760;28;20459;-87
2024/04/03 10:46:24;;;;;;;0.20;0.20;;;;;;;22.40;27.56;101308.47;5009656;28;20053;-84
2024/04/03 10:48:49;;;;;;;0.15;0.15;;;;;;;22.33;27.22;101300.28;4993732;28;20080;-83
2024/04/03 10:51:15;;;;;;;0.20;0.20;;;;;;;21.99;28.00;101290.00;4992778;28;20072;-82
2024/04/03 10:53:40;;;;;;;0.10;0.10;;;;;;;21.97;27.48;101291.94;4993373;28;20068;-87
2024/04/03 10:56:06;;;;;;;0.20;0.20;;;;;;;21.80;29.32;101268.00;4994174;28;20040;-88
2024/04/03 10:58:32;;;;;;;0.10;0.10;;;;;;;21.75;27.20;101281.59;4981075;28;20085;-91
2024/04/03 11:00:57;;;;;;;0.20;0.20;;;;;;;21.94;28.25;101294.84;5011958;28;20423;-86
2024/04/03 11:03:23;;;;;;;0.20;0.20;;;;;;;21.84;29.47;101293.97;4993828;28;20053;-90
2024/04/03 11:05:49;;;;;;;0.20;0.20;;;;;;;21.53;27.76;101294.88;4994730;28;20026;-84
2024/04/03 11:08:15;;;;;;;0.20;0.20;;;;;;;21.56;28.04;101292.00;5011257;28;20033;-85
2024/04/03 11:10:41;;;;;;;0.20;0.20;;;;;;;21.76;27.00;101296.41;5011393;28;20384;-88
2024/04/03 11:13:10;;;;;;;0.10;0.10;;;;;;;21.97;26.87;101291.09;4962044;28;20030;-90
2024/04/03 11:15:36;;;;;;;0.20;0.20;;;;;;;21.99;27.70;101278.63;4980038;28;20030;-80
2024/04/03 11:18:01;;;;;;;0.20;0.20;;;;;;;22.11;28.05;101290.75;4978184;28;20026;-88
2024/04/03 11:20:34;;;;;;;0.20;0.20;;;;;;;22.09;28.48;101279.53;4993275;28;20038;-87
2024/04/03 11:22:59;;;;;;;;;;;;;;;22.22;26.70;101279.28;4979543;28;20519;-88
2024/04/03 11:25:25;;;;;;;0.13;0.13;;;;;;;22.13;27.61;101270.41;4977351;28;19921;-92